sensor_id;sensor_type;location;lat;lon;timestamp;P1;durP1;ratioP1;P2;durP2;ratioP2
49978;SDS011;35869;50.990;6.962;2022-10-16T00:04:49;2.80;;;2.10;;
49978;SDS011;35869;50.990;6.962;2022-10-16T00:09:50;3.60;;;2.28;;
49978;SDS011;35869;50.990;6.962;2022-10-16T00:14:50;3.25;;;2.38;;
49978;SDS011;35869;50.990;6.962;2022-10-16T00:19:50;3.07;;;2.33;;
49978;SDS011;35869;50.990;6.962;2022-10-16T00:24:50;2.47;;;2.28;;
49978;SDS011;35869;50.990;6.962;2022-10-16T00:29:51;2.50;;;2.30;;
49978;SDS011;35869;50.990;6.962;2022-10-16T00:34:52;3.10;;;2.50;;
49978;SDS011;35869;50.990;6.962;2022-10-16T00:39:52;3.53;;;2.50;;
49978;SDS011;35869;50.990;6.962;2022-10-16T00:44:53;2.20;;;2.00;;
49978;SDS011;35869;50.990;6.962;2022-10-16T00:50:06;2.28;;;2.05;;
49978;SDS011;35869;50.990;6.962;2022-10-16T00:55:13;2.60;;;2.40;;
49978;SDS011;35869;50.990;6.962;2022-10-16T01:00:16;2.80;;;2.50;;
49978;SDS011;35869;50.990;6.962;2022-10-16T01:05:21;3.95;;;2.70;;
49978;SDS011;35869;50.990;6.962;2022-10-16T01:10:40;3.65;;;2.30;;
49978;SDS011;35869;50.990;6.962;2022-10-16T01:21:03;2.08;;;1.80;;
49978;SDS011;35869;50.990;6.962;2022-10-16T01:31:25;3.80;;;1.98;;
49978;SDS011;35869;50.990;6.962;2022-10-16T01:36:31;4.47;;;2.30;;
49978;SDS011;35869;50.990;6.962;2022-10-16T01:41:38;1.70;;;1.60;;
49978;SDS011;35869;50.990;6.962;2022-10-16T01:46:43;1.75;;;1.60;;
49978;SDS011;35869;50.990;6.962;2022-10-16T01:51:49;1.75;;;1.58;;
49978;SDS011;35869;50.990;6.962;2022-10-16T01:56:55;2.17;;;1.58;;
49978;SDS011;35869;50.990;6.962;2022-10-16T02:01:58;2.78;;;1.60;;
49978;SDS011;35869;50.990;6.962;2022-10-16T02:07:01;2.13;;;1.63;;
49978;SDS011;35869;50.990;6.962;2022-10-16T02:12:04;3.87;;;2.07;;
49978;SDS011;35869;50.990;6.962;2022-10-16T02:17:14;2.03;;;1.92;;
49978;SDS011;35869;50.990;6.962;2022-10-16T02:22:22;2.20;;;1.33;;
49978;SDS011;35869;50.990;6.962;2022-10-16T02:32:29;1.60;;;1.50;;
49978;SDS011;35869;50.990;6.962;2022-10-16T02:37:31;3.38;;;1.98;;
49978;SDS011;35869;50.990;6.962;2022-10-16T02:42:33;2.20;;;1.73;;
49978;SDS011;35869;50.990;6.962;2022-10-16T02:47:35;2.20;;;1.80;;
49978;SDS011;35869;50.990;6.962;2022-10-16T02:52:35;1.73;;;1.47;;
49978;SDS011;35869;50.990;6.962;2022-10-16T02:57:35;1.80;;;1.30;;
49978;SDS011;35869;50.990;6.962;2022-10-16T03:02:36;2.72;;;1.30;;
49978;SDS011;35869;50.990;6.962;2022-10-16T03:07:36;3.25;;;1.35;;
49978;SDS011;35869;50.990;6.962;2022-10-16T03:12:36;2.10;;;1.42;;
49978;SDS011;35869;50.990;6.962;2022-10-16T03:17:36;1.23;;;1.13;;
49978;SDS011;35869;50.990;6.962;2022-10-16T03:27:37;2.05;;;1.40;;
49978;SDS011;35869;50.990;6.962;2022-10-16T03:32:37;1.40;;;1.00;;
49978;SDS011;35869;50.990;6.962;2022-10-16T03:37:37;1.40;;;1.30;;
49978;SDS011;35869;50.990;6.962;2022-10-16T03:42:38;2.03;;;1.20;;
49978;SDS011;35869;50.990;6.962;2022-10-16T03:47:38;1.50;;;0.90;;
49978;SDS011;35869;50.990;6.962;2022-10-16T03:52:38;1.65;;;1.00;;
49978;SDS011;35869;50.990;6.962;2022-10-16T03:57:38;1.33;;;1.23;;
49978;SDS011;35869;50.990;6.962;2022-10-16T04:02:39;2.25;;;1.27;;
49978;SDS011;35869;50.990;6.962;2022-10-16T04:07:39;1.35;;;0.93;;
49978;SDS011;35869;50.990;6.962;2022-10-16T04:12:40;1.08;;;0.93;;
49978;SDS011;35869;50.990;6.962;2022-10-16T04:17:40;1.00;;;0.82;;
49978;SDS011;35869;50.990;6.962;2022-10-16T04:22:40;1.27;;;1.08;;
49978;SDS011;35869;50.990;6.962;2022-10-16T04:27:40;1.05;;;0.93;;
49978;SDS011;35869;50.990;6.962;2022-10-16T04:32:41;0.70;;;0.70;;
49978;SDS011;35869;50.990;6.962;2022-10-16T04:37:41;1.45;;;1.27;;
49978;SDS011;35869;50.990;6.962;2022-10-16T04:42:41;1.50;;;1.30;;
49978;SDS011;35869;50.990;6.962;2022-10-16T04:47:41;1.63;;;1.20;;
49978;SDS011;35869;50.990;6.962;2022-10-16T04:52:42;1.20;;;1.10;;
49978;SDS011;35869;50.990;6.962;2022-10-16T04:57:42;1.58;;;1.00;;
49978;SDS011;35869;50.990;6.962;2022-10-16T05:02:42;1.35;;;0.95;;
49978;SDS011;35869;50.990;6.962;2022-10-16T05:07:42;3.28;;;1.00;;
49978;SDS011;35869;50.990;6.962;2022-10-16T05:12:43;1.73;;;1.30;;
49978;SDS011;35869;50.990;6.962;2022-10-16T05:17:43;1.57;;;1.47;;
49978;SDS011;35869;50.990;6.962;2022-10-16T05:22:43;2.85;;;1.08;;
49978;SDS011;35869;50.990;6.962;2022-10-16T05:27:47;2.25;;;1.40;;
49978;SDS011;35869;50.990;6.962;2022-10-16T05:32:48;3.10;;;1.30;;
49978;SDS011;35869;50.990;6.962;2022-10-16T05:37:49;2.92;;;0.82;;
49978;SDS011;35869;50.990;6.962;2022-10-16T05:42:49;2.05;;;1.33;;
49978;SDS011;35869;50.990;6.962;2022-10-16T05:47:49;1.00;;;0.90;;
49978;SDS011;35869;50.990;6.962;2022-10-16T05:52:49;1.65;;;1.15;;
49978;SDS011;35869;50.990;6.962;2022-10-16T05:57:49;3.03;;;1.50;;
49978;SDS011;35869;50.990;6.962;2022-10-16T06:02:50;4.30;;;1.35;;
49978;SDS011;35869;50.990;6.962;2022-10-16T06:07:50;3.42;;;1.67;;
49978;SDS011;35869;50.990;6.962;2022-10-16T06:12:50;2.40;;;1.40;;
49978;SDS011;35869;50.990;6.962;2022-10-16T06:17:50;3.50;;;1.70;;
49978;SDS011;35869;50.990;6.962;2022-10-16T06:22:51;1.80;;;1.63;;
49978;SDS011;35869;50.990;6.962;2022-10-16T06:27:51;2.03;;;1.83;;
49978;SDS011;35869;50.990;6.962;2022-10-16T06:32:51;2.50;;;1.57;;
49978;SDS011;35869;50.990;6.962;2022-10-16T06:37:54;3.42;;;1.83;;
49978;SDS011;35869;50.990;6.962;2022-10-16T06:42:55;2.28;;;1.60;;
49978;SDS011;35869;50.990;6.962;2022-10-16T06:47:55;4.63;;;2.03;;
49978;SDS011;35869;50.990;6.962;2022-10-16T06:52:55;4.47;;;1.83;;
49978;SDS011;35869;50.990;6.962;2022-10-16T06:57:56;2.38;;;2.17;;
49978;SDS011;35869;50.990;6.962;2022-10-16T07:02:56;4.65;;;2.45;;
49978;SDS011;35869;50.990;6.962;2022-10-16T07:07:56;2.33;;;2.13;;
49978;SDS011;35869;50.990;6.962;2022-10-16T07:12:56;4.53;;;2.45;;
49978;SDS011;35869;50.990;6.962;2022-10-16T07:17:56;2.30;;;2.10;;
49978;SDS011;35869;50.990;6.962;2022-10-16T07:22:57;2.78;;;2.47;;
49978;SDS011;35869;50.990;6.962;2022-10-16T07:27:57;2.58;;;2.10;;
49978;SDS011;35869;50.990;6.962;2022-10-16T07:32:57;2.10;;;1.90;;
49978;SDS011;35869;50.990;6.962;2022-10-16T07:37:58;1.73;;;1.63;;
49978;SDS011;35869;50.990;6.962;2022-10-16T07:42:58;3.70;;;2.08;;
49978;SDS011;35869;50.990;6.962;2022-10-16T07:47:58;2.55;;;1.98;;
49978;SDS011;35869;50.990;6.962;2022-10-16T07:52:58;2.83;;;1.95;;
49978;SDS011;35869;50.990;6.962;2022-10-16T07:57:58;2.55;;;1.70;;
49978;SDS011;35869;50.990;6.962;2022-10-16T08:02:59;4.75;;;1.52;;
49978;SDS011;35869;50.990;6.962;2022-10-16T08:08:00;2.50;;;1.60;;
49978;SDS011;35869;50.990;6.962;2022-10-16T08:13:01;2.30;;;1.48;;
49978;SDS011;35869;50.990;6.962;2022-10-16T08:18:02;2.88;;;1.45;;
49978;SDS011;35869;50.990;6.962;2022-10-16T08:23:04;2.10;;;1.40;;
49978;SDS011;35869;50.990;6.962;2022-10-16T08:28:06;1.52;;;1.20;;
49978;SDS011;35869;50.990;6.962;2022-10-16T08:33:08;2.65;;;1.35;;
49978;SDS011;35869;50.990;6.962;2022-10-16T08:38:08;2.42;;;1.05;;
49978;SDS011;35869;50.990;6.962;2022-10-16T08:53:15;2.10;;;1.10;;
49978;SDS011;35869;50.990;6.962;2022-10-16T08:58:22;1.10;;;1.00;;
49978;SDS011;35869;50.990;6.962;2022-10-16T09:19:24;0.95;;;0.70;;
49978;SDS011;35869;50.990;6.962;2022-10-16T09:24:32;5.15;;;0.90;;
49978;SDS011;35869;50.990;6.962;2022-10-16T09:29:32;1.17;;;0.90;;
49978;SDS011;35869;50.990;6.962;2022-10-16T09:34:36;1.33;;;0.70;;
49978;SDS011;35869;50.990;6.962;2022-10-16T09:39:49;2.25;;;0.60;;
49978;SDS011;35869;50.990;6.962;2022-10-16T09:44:50;2.65;;;0.77;;
49978;SDS011;35869;50.990;6.962;2022-10-16T09:54:55;1.27;;;0.55;;
49978;SDS011;35869;50.990;6.962;2022-10-16T09:59:58;1.35;;;0.50;;
49978;SDS011;35869;50.990;6.962;2022-10-16T10:09:59;5.07;;;0.77;;
49978;SDS011;35869;50.990;6.962;2022-10-16T10:25:32;0.30;;;0.22;;
49978;SDS011;35869;50.990;6.962;2022-10-16T10:30:40;4.90;;;0.80;;
49978;SDS011;35869;50.990;6.962;2022-10-16T10:35:44;1.15;;;0.43;;
49978;SDS011;35869;50.990;6.962;2022-10-16T10:56:57;1.35;;;0.50;;
49978;SDS011;35869;50.990;6.962;2022-10-16T11:07:28;2.72;;;0.63;;
49978;SDS011;35869;50.990;6.962;2022-10-16T11:12:37;0.82;;;0.50;;
49978;SDS011;35869;50.990;6.962;2022-10-16T11:17:47;0.60;;;0.30;;
49978;SDS011;35869;50.990;6.962;2022-10-16T11:49:13;4.15;;;0.80;;
49978;SDS011;35869;50.990;6.962;2022-10-16T11:54:20;2.95;;;0.47;;
49978;SDS011;35869;50.990;6.962;2022-10-16T11:59:33;0.40;;;0.33;;
49978;SDS011;35869;50.990;6.962;2022-10-16T12:04:43;1.17;;;0.40;;
49978;SDS011;35869;50.990;6.962;2022-10-16T12:09:51;4.35;;;0.60;;
49978;SDS011;35869;50.990;6.962;2022-10-16T12:15:51;0.50;;;0.30;;
49978;SDS011;35869;50.990;6.962;2022-10-16T12:20:25;0.75;;;0.20;;
49978;SDS011;35869;50.990;6.962;2022-10-16T12:25:31;1.33;;;0.50;;
49978;SDS011;35869;50.990;6.962;2022-10-16T12:30:35;1.77;;;0.50;;
49978;SDS011;35869;50.990;6.962;2022-10-16T12:35:43;0.80;;;0.50;;
49978;SDS011;35869;50.990;6.962;2022-10-16T12:40:45;1.35;;;0.55;;
49978;SDS011;35869;50.990;6.962;2022-10-16T12:46:01;0.55;;;0.50;;
49978;SDS011;35869;50.990;6.962;2022-10-16T13:12:37;1.25;;;0.65;;
49978;SDS011;35869;50.990;6.962;2022-10-16T13:17:45;1.10;;;0.40;;
49978;SDS011;35869;50.990;6.962;2022-10-16T13:23:23;0.80;;;0.30;;
49978;SDS011;35869;50.990;6.962;2022-10-16T13:28:33;1.67;;;0.83;;
49978;SDS011;35869;50.990;6.962;2022-10-16T13:38:45;1.40;;;0.55;;
49978;SDS011;35869;50.990;6.962;2022-10-16T13:43:46;1.70;;;0.87;;
49978;SDS011;35869;50.990;6.962;2022-10-16T13:49:05;1.20;;;0.60;;
49978;SDS011;35869;50.990;6.962;2022-10-16T13:54:11;2.17;;;0.60;;
49978;SDS011;35869;50.990;6.962;2022-10-16T14:04:41;0.68;;;0.50;;
49978;SDS011;35869;50.990;6.962;2022-10-16T14:09:41;2.17;;;0.70;;
49978;SDS011;35869;50.990;6.962;2022-10-16T14:14:51;1.13;;;0.70;;
49978;SDS011;35869;50.990;6.962;2022-10-16T14:19:54;1.55;;;0.60;;
49978;SDS011;35869;50.990;6.962;2022-10-16T14:24:57;1.85;;;1.00;;
49978;SDS011;35869;50.990;6.962;2022-10-16T14:30:17;2.35;;;0.90;;
49978;SDS011;35869;50.990;6.962;2022-10-16T14:35:28;1.70;;;1.02;;
49978;SDS011;35869;50.990;6.962;2022-10-16T14:40:34;1.85;;;0.80;;
49978;SDS011;35869;50.990;6.962;2022-10-16T14:45:36;1.02;;;0.80;;
49978;SDS011;35869;50.990;6.962;2022-10-16T14:50:36;1.58;;;0.90;;
49978;SDS011;35869;50.990;6.962;2022-10-16T14:55:36;2.00;;;1.00;;
49978;SDS011;35869;50.990;6.962;2022-10-16T15:00:37;4.72;;;1.02;;
49978;SDS011;35869;50.990;6.962;2022-10-16T15:05:37;1.50;;;1.05;;
49978;SDS011;35869;50.990;6.962;2022-10-16T15:10:42;1.27;;;0.80;;
49978;SDS011;35869;50.990;6.962;2022-10-16T15:15:44;1.25;;;0.90;;
49978;SDS011;35869;50.990;6.962;2022-10-16T15:20:47;0.70;;;0.68;;
49978;SDS011;35869;50.990;6.962;2022-10-16T15:30:51;2.42;;;0.90;;
49978;SDS011;35869;50.990;6.962;2022-10-16T15:35:54;1.83;;;0.55;;
49978;SDS011;35869;50.990;6.962;2022-10-16T15:40:54;2.42;;;0.60;;
49978;SDS011;35869;50.990;6.962;2022-10-16T15:45:58;0.67;;;0.67;;
49978;SDS011;35869;50.990;6.962;2022-10-16T15:51:07;3.90;;;1.13;;
49978;SDS011;35869;50.990;6.962;2022-10-16T15:56:08;2.05;;;0.85;;
49978;SDS011;35869;50.990;6.962;2022-10-16T16:01:10;1.48;;;1.08;;
49978;SDS011;35869;50.990;6.962;2022-10-16T16:06:11;2.10;;;0.93;;
49978;SDS011;35869;50.990;6.962;2022-10-16T16:11:14;2.38;;;0.95;;
49978;SDS011;35869;50.990;6.962;2022-10-16T16:16:16;2.92;;;1.23;;
49978;SDS011;35869;50.990;6.962;2022-10-16T16:21:17;2.47;;;1.23;;
49978;SDS011;35869;50.990;6.962;2022-10-16T16:26:24;1.63;;;1.10;;
49978;SDS011;35869;50.990;6.962;2022-10-16T16:31:26;1.30;;;1.20;;
49978;SDS011;35869;50.990;6.962;2022-10-16T16:36:27;1.65;;;1.40;;
49978;SDS011;35869;50.990;6.962;2022-10-16T16:41:28;2.27;;;1.47;;
49978;SDS011;35869;50.990;6.962;2022-10-16T16:46:30;3.58;;;1.58;;
49978;SDS011;35869;50.990;6.962;2022-10-16T16:51:32;3.58;;;2.35;;
49978;SDS011;35869;50.990;6.962;2022-10-16T16:56:33;5.18;;;1.45;;
49978;SDS011;35869;50.990;6.962;2022-10-16T17:01:34;3.40;;;1.70;;
49978;SDS011;35869;50.990;6.962;2022-10-16T17:06:35;3.33;;;1.58;;
49978;SDS011;35869;50.990;6.962;2022-10-16T17:11:35;1.77;;;1.25;;
49978;SDS011;35869;50.990;6.962;2022-10-16T17:16:36;1.67;;;1.40;;
49978;SDS011;35869;50.990;6.962;2022-10-16T17:21:38;2.63;;;1.35;;
49978;SDS011;35869;50.990;6.962;2022-10-16T17:26:38;1.92;;;1.30;;
49978;SDS011;35869;50.990;6.962;2022-10-16T17:31:39;3.97;;;1.27;;
49978;SDS011;35869;50.990;6.962;2022-10-16T17:36:40;3.67;;;1.25;;
49978;SDS011;35869;50.990;6.962;2022-10-16T17:41:40;2.93;;;0.97;;
49978;SDS011;35869;50.990;6.962;2022-10-16T17:46:40;1.20;;;1.10;;
49978;SDS011;35869;50.990;6.962;2022-10-16T17:51:41;7.00;;;1.50;;
49978;SDS011;35869;50.990;6.962;2022-10-16T17:56:42;2.72;;;1.48;;
49978;SDS011;35869;50.990;6.962;2022-10-16T18:01:42;2.50;;;1.40;;
49978;SDS011;35869;50.990;6.962;2022-10-16T18:06:42;1.37;;;1.00;;
49978;SDS011;35869;50.990;6.962;2022-10-16T18:11:44;2.20;;;1.38;;
49978;SDS011;35869;50.990;6.962;2022-10-16T18:16:44;2.72;;;1.30;;
49978;SDS011;35869;50.990;6.962;2022-10-16T18:21:44;5.70;;;1.40;;
49978;SDS011;35869;50.990;6.962;2022-10-16T18:26:45;2.60;;;1.60;;
49978;SDS011;35869;50.990;6.962;2022-10-16T18:31:45;2.50;;;1.63;;
49978;SDS011;35869;50.990;6.962;2022-10-16T18:36:45;3.60;;;1.37;;
49978;SDS011;35869;50.990;6.962;2022-10-16T18:41:45;2.10;;;1.70;;
49978;SDS011;35869;50.990;6.962;2022-10-16T18:46:46;5.60;;;1.93;;
49978;SDS011;35869;50.990;6.962;2022-10-16T18:51:46;3.73;;;1.63;;
49978;SDS011;35869;50.990;6.962;2022-10-16T18:56:46;2.27;;;1.60;;
49978;SDS011;35869;50.990;6.962;2022-10-16T19:01:47;1.63;;;1.50;;
49978;SDS011;35869;50.990;6.962;2022-10-16T19:06:49;2.97;;;1.77;;
49978;SDS011;35869;50.990;6.962;2022-10-16T19:11:51;2.90;;;1.77;;
49978;SDS011;35869;50.990;6.962;2022-10-16T19:16:51;1.93;;;1.77;;
49978;SDS011;35869;50.990;6.962;2022-10-16T19:21:51;2.00;;;1.48;;
49978;SDS011;35869;50.990;6.962;2022-10-16T19:26:52;2.83;;;1.77;;
49978;SDS011;35869;50.990;6.962;2022-10-16T19:31:52;4.70;;;1.83;;
49978;SDS011;35869;50.990;6.962;2022-10-16T19:36:52;3.17;;;1.83;;
49978;SDS011;35869;50.990;6.962;2022-10-16T19:41:52;1.80;;;1.70;;
49978;SDS011;35869;50.990;6.962;2022-10-16T19:46:53;1.50;;;1.40;;
49978;SDS011;35869;50.990;6.962;2022-10-16T19:51:53;2.45;;;1.63;;
49978;SDS011;35869;50.990;6.962;2022-10-16T19:56:53;1.13;;;1.00;;
49978;SDS011;35869;50.990;6.962;2022-10-16T20:01:53;3.10;;;1.33;;
49978;SDS011;35869;50.990;6.962;2022-10-16T20:06:53;2.65;;;1.27;;
49978;SDS011;35869;50.990;6.962;2022-10-16T20:11:54;1.90;;;1.40;;
49978;SDS011;35869;50.990;6.962;2022-10-16T20:16:54;3.50;;;1.73;;
49978;SDS011;35869;50.990;6.962;2022-10-16T20:21:54;2.97;;;1.80;;
49978;SDS011;35869;50.990;6.962;2022-10-16T20:26:55;2.37;;;1.70;;
49978;SDS011;35869;50.990;6.962;2022-10-16T20:31:55;4.70;;;1.70;;
49978;SDS011;35869;50.990;6.962;2022-10-16T20:36:55;2.27;;;1.70;;
49978;SDS011;35869;50.990;6.962;2022-10-16T20:41:56;2.97;;;1.90;;
49978;SDS011;35869;50.990;6.962;2022-10-16T20:46:56;4.78;;;2.00;;
49978;SDS011;35869;50.990;6.962;2022-10-16T20:51:56;3.60;;;1.80;;
49978;SDS011;35869;50.990;6.962;2022-10-16T20:56:56;3.43;;;2.17;;
49978;SDS011;35869;50.990;6.962;2022-10-16T21:01:56;2.05;;;1.85;;
49978;SDS011;35869;50.990;6.962;2022-10-16T21:06:57;3.35;;;2.55;;
49978;SDS011;35869;50.990;6.962;2022-10-16T21:11:57;4.70;;;2.33;;
49978;SDS011;35869;50.990;6.962;2022-10-16T21:16:57;3.10;;;2.30;;
49978;SDS011;35869;50.990;6.962;2022-10-16T21:21:57;5.25;;;3.20;;
49978;SDS011;35869;50.990;6.962;2022-10-16T21:26:58;3.33;;;2.42;;
49978;SDS011;35869;50.990;6.962;2022-10-16T21:31:58;4.73;;;3.23;;
49978;SDS011;35869;50.990;6.962;2022-10-16T21:36:58;3.27;;;2.70;;
49978;SDS011;35869;50.990;6.962;2022-10-16T21:41:58;4.65;;;3.58;;
49978;SDS011;35869;50.990;6.962;2022-10-16T21:46:59;3.93;;;3.30;;
49978;SDS011;35869;50.990;6.962;2022-10-16T21:51:59;4.90;;;3.92;;
49978;SDS011;35869;50.990;6.962;2022-10-16T21:56:59;4.60;;;3.55;;
49978;SDS011;35869;50.990;6.962;2022-10-16T22:01:59;5.18;;;3.85;;
49978;SDS011;35869;50.990;6.962;2022-10-16T22:07:00;5.18;;;3.53;;
49978;SDS011;35869;50.990;6.962;2022-10-16T22:12:00;5.07;;;4.10;;
49978;SDS011;35869;50.990;6.962;2022-10-16T22:17:00;4.93;;;4.22;;
49978;SDS011;35869;50.990;6.962;2022-10-16T22:22:00;4.50;;;3.92;;
49978;SDS011;35869;50.990;6.962;2022-10-16T22:27:00;10.38;;;4.65;;
49978;SDS011;35869;50.990;6.962;2022-10-16T22:32:01;4.50;;;4.07;;
49978;SDS011;35869;50.990;6.962;2022-10-16T22:37:01;5.18;;;4.68;;
49978;SDS011;35869;50.990;6.962;2022-10-16T22:42:01;6.40;;;4.38;;
49978;SDS011;35869;50.990;6.962;2022-10-16T22:47:02;7.63;;;4.97;;
49978;SDS011;35869;50.990;6.962;2022-10-16T22:52:02;10.15;;;5.80;;
49978;SDS011;35869;50.990;6.962;2022-10-16T23:02:02;9.15;;;5.80;;
49978;SDS011;35869;50.990;6.962;2022-10-16T23:07:03;6.93;;;5.30;;
49978;SDS011;35869;50.990;6.962;2022-10-16T23:12:03;10.10;;;6.43;;
49978;SDS011;35869;50.990;6.962;2022-10-16T23:22:03;10.27;;;6.25;;
49978;SDS011;35869;50.990;6.962;2022-10-16T23:27:04;10.57;;;7.05;;
49978;SDS011;35869;50.990;6.962;2022-10-16T23:37:04;11.80;;;8.38;;
49978;SDS011;35869;50.990;6.962;2022-10-16T23:42:04;9.63;;;6.70;;
49978;SDS011;35869;50.990;6.962;2022-10-16T23:52:05;10.48;;;8.07;;
49978;SDS011;35869;50.990;6.962;2022-10-16T23:57:05;9.75;;;8.35;;
